sensor_id;sensor_type;location;lat;lon;timestamp;P1;durP1;ratioP1;P2;durP2;ratioP2
36989;SDS011;22898;52.102;5.776;2023-04-06T00:00:47;1.25;;;1.00;;
36989;SDS011;22898;52.102;5.776;2023-04-06T00:03:13;0.40;;;0.40;;
36989;SDS011;22898;52.102;5.776;2023-04-06T00:05:40;0.80;;;0.80;;
36989;SDS011;22898;52.102;5.776;2023-04-06T00:08:05;0.60;;;0.60;;
36989;SDS011;22898;52.102;5.776;2023-04-06T00:10:31;0.70;;;0.70;;
36989;SDS011;22898;52.102;5.776;2023-04-06T00:12:57;1.42;;;0.95;;
36989;SDS011;22898;52.102;5.776;2023-04-06T00:15:24;0.55;;;0.55;;
36989;SDS011;22898;52.102;5.776;2023-04-06T00:17:50;2.38;;;1.27;;
36989;SDS011;22898;52.102;5.776;2023-04-06T00:20:16;1.35;;;1.10;;
36989;SDS011;22898;52.102;5.776;2023-04-06T00:22:41;0.75;;;0.63;;
36989;SDS011;22898;52.102;5.776;2023-04-06T00:25:08;1.65;;;1.50;;
36989;SDS011;22898;52.102;5.776;2023-04-06T00:27:35;2.15;;;1.80;;
36989;SDS011;22898;52.102;5.776;2023-04-06T00:30:01;0.90;;;0.90;;
36989;SDS011;22898;52.102;5.776;2023-04-06T00:32:27;1.58;;;1.45;;
36989;SDS011;22898;52.102;5.776;2023-04-06T00:34:52;0.80;;;0.75;;
36989;SDS011;22898;52.102;5.776;2023-04-06T00:37:18;6.10;;;1.02;;
36989;SDS011;22898;52.102;5.776;2023-04-06T00:39:44;1.00;;;1.00;;
36989;SDS011;22898;52.102;5.776;2023-04-06T00:42:13;0.85;;;0.85;;
36989;SDS011;22898;52.102;5.776;2023-04-06T00:44:42;1.27;;;0.73;;
36989;SDS011;22898;52.102;5.776;2023-04-06T00:47:08;1.23;;;1.05;;
36989;SDS011;22898;52.102;5.776;2023-04-06T00:49:34;1.33;;;1.23;;
36989;SDS011;22898;52.102;5.776;2023-04-06T00:52:00;3.28;;;1.08;;
36989;SDS011;22898;52.102;5.776;2023-04-06T00:54:26;0.52;;;0.52;;
36989;SDS011;22898;52.102;5.776;2023-04-06T00:56:55;1.33;;;1.27;;
36989;SDS011;22898;52.102;5.776;2023-04-06T00:59:21;2.58;;;1.90;;
36989;SDS011;22898;52.102;5.776;2023-04-06T01:01:47;3.17;;;1.35;;
36989;SDS011;22898;52.102;5.776;2023-04-06T01:04:13;0.65;;;0.65;;
36989;SDS011;22898;52.102;5.776;2023-04-06T01:06:38;0.70;;;0.70;;
36989;SDS011;22898;52.102;5.776;2023-04-06T01:09:05;0.88;;;0.68;;
36989;SDS011;22898;52.102;5.776;2023-04-06T01:11:30;0.60;;;0.60;;
36989;SDS011;22898;52.102;5.776;2023-04-06T01:13:56;1.15;;;1.10;;
36989;SDS011;22898;52.102;5.776;2023-04-06T01:16:22;0.93;;;0.88;;
36989;SDS011;22898;52.102;5.776;2023-04-06T01:18:47;0.95;;;0.95;;
36989;SDS011;22898;52.102;5.776;2023-04-06T01:21:13;0.63;;;0.63;;
36989;SDS011;22898;52.102;5.776;2023-04-06T01:23:46;1.10;;;1.08;;
36989;SDS011;22898;52.102;5.776;2023-04-06T01:26:12;1.02;;;1.02;;
36989;SDS011;22898;52.102;5.776;2023-04-06T01:28:38;4.95;;;1.65;;
36989;SDS011;22898;52.102;5.776;2023-04-06T01:31:06;1.35;;;0.60;;
36989;SDS011;22898;52.102;5.776;2023-04-06T01:33:32;0.70;;;0.70;;
36989;SDS011;22898;52.102;5.776;2023-04-06T01:35:58;0.55;;;0.50;;
36989;SDS011;22898;52.102;5.776;2023-04-06T01:38:24;4.32;;;0.98;;
36989;SDS011;22898;52.102;5.776;2023-04-06T01:40:50;0.85;;;0.85;;
36989;SDS011;22898;52.102;5.776;2023-04-06T01:43:16;1.13;;;0.95;;
36989;SDS011;22898;52.102;5.776;2023-04-06T01:45:41;5.72;;;0.75;;
36989;SDS011;22898;52.102;5.776;2023-04-06T01:48:07;1.33;;;1.23;;
36989;SDS011;22898;52.102;5.776;2023-04-06T01:50:33;3.45;;;1.35;;
36989;SDS011;22898;52.102;5.776;2023-04-06T01:52:58;2.47;;;1.67;;
36989;SDS011;22898;52.102;5.776;2023-04-06T01:55:24;0.77;;;0.77;;
36989;SDS011;22898;52.102;5.776;2023-04-06T01:57:49;1.55;;;1.45;;
36989;SDS011;22898;52.102;5.776;2023-04-06T02:00:15;2.17;;;1.13;;
36989;SDS011;22898;52.102;5.776;2023-04-06T02:02:41;1.15;;;1.05;;
36989;SDS011;22898;52.102;5.776;2023-04-06T02:05:07;2.75;;;2.05;;
36989;SDS011;22898;52.102;5.776;2023-04-06T02:07:33;0.80;;;0.80;;
36989;SDS011;22898;52.102;5.776;2023-04-06T02:09:58;2.17;;;1.10;;
36989;SDS011;22898;52.102;5.776;2023-04-06T02:12:24;0.85;;;0.85;;
36989;SDS011;22898;52.102;5.776;2023-04-06T02:14:49;1.38;;;1.27;;
36989;SDS011;22898;52.102;5.776;2023-04-06T02:17:15;2.83;;;0.70;;
36989;SDS011;22898;52.102;5.776;2023-04-06T02:19:40;1.23;;;1.10;;
36989;SDS011;22898;52.102;5.776;2023-04-06T02:22:06;0.93;;;0.93;;
36989;SDS011;22898;52.102;5.776;2023-04-06T02:24:32;1.75;;;1.33;;
36989;SDS011;22898;52.102;5.776;2023-04-06T02:26:57;0.65;;;0.65;;
36989;SDS011;22898;52.102;5.776;2023-04-06T02:29:23;1.67;;;1.48;;
36989;SDS011;22898;52.102;5.776;2023-04-06T02:31:48;1.67;;;1.55;;
36989;SDS011;22898;52.102;5.776;2023-04-06T02:34:14;1.05;;;1.05;;
36989;SDS011;22898;52.102;5.776;2023-04-06T02:36:45;0.75;;;0.75;;
36989;SDS011;22898;52.102;5.776;2023-04-06T02:39:12;3.15;;;1.38;;
36989;SDS011;22898;52.102;5.776;2023-04-06T02:41:38;2.97;;;1.10;;
36989;SDS011;22898;52.102;5.776;2023-04-06T02:44:05;1.27;;;1.20;;
36989;SDS011;22898;52.102;5.776;2023-04-06T02:46:32;0.75;;;0.75;;
36989;SDS011;22898;52.102;5.776;2023-04-06T02:48:58;1.63;;;1.52;;
36989;SDS011;22898;52.102;5.776;2023-04-06T02:51:25;1.23;;;1.13;;
36989;SDS011;22898;52.102;5.776;2023-04-06T02:53:51;1.67;;;1.40;;
36989;SDS011;22898;52.102;5.776;2023-04-06T02:56:17;0.68;;;0.68;;
36989;SDS011;22898;52.102;5.776;2023-04-06T02:58:43;0.50;;;0.50;;
36989;SDS011;22898;52.102;5.776;2023-04-06T03:01:08;2.15;;;0.85;;
36989;SDS011;22898;52.102;5.776;2023-04-06T03:03:34;1.50;;;1.40;;
36989;SDS011;22898;52.102;5.776;2023-04-06T03:06:00;1.33;;;1.17;;
36989;SDS011;22898;52.102;5.776;2023-04-06T03:08:25;0.82;;;0.82;;
36989;SDS011;22898;52.102;5.776;2023-04-06T03:10:51;1.10;;;1.10;;
36989;SDS011;22898;52.102;5.776;2023-04-06T03:13:16;0.88;;;0.82;;
36989;SDS011;22898;52.102;5.776;2023-04-06T03:15:42;1.50;;;1.40;;
36989;SDS011;22898;52.102;5.776;2023-04-06T03:18:08;2.50;;;1.98;;
36989;SDS011;22898;52.102;5.776;2023-04-06T03:20:33;1.95;;;1.25;;
36989;SDS011;22898;52.102;5.776;2023-04-06T03:22:59;15.65;;;1.10;;
36989;SDS011;22898;52.102;5.776;2023-04-06T03:25:25;1.35;;;1.15;;
36989;SDS011;22898;52.102;5.776;2023-04-06T03:27:50;1.10;;;1.10;;
36989;SDS011;22898;52.102;5.776;2023-04-06T03:30:16;2.65;;;1.42;;
36989;SDS011;22898;52.102;5.776;2023-04-06T03:32:42;1.73;;;0.88;;
36989;SDS011;22898;52.102;5.776;2023-04-06T03:35:08;2.97;;;1.00;;
36989;SDS011;22898;52.102;5.776;2023-04-06T03:37:34;0.47;;;0.47;;
36989;SDS011;22898;52.102;5.776;2023-04-06T03:40:00;0.82;;;0.82;;
36989;SDS011;22898;52.102;5.776;2023-04-06T03:42:26;0.80;;;0.80;;
36989;SDS011;22898;52.102;5.776;2023-04-06T03:44:52;0.70;;;0.70;;
36989;SDS011;22898;52.102;5.776;2023-04-06T03:47:17;2.30;;;2.00;;
36989;SDS011;22898;52.102;5.776;2023-04-06T03:49:43;1.30;;;1.08;;
36989;SDS011;22898;52.102;5.776;2023-04-06T03:52:09;1.48;;;1.15;;
36989;SDS011;22898;52.102;5.776;2023-04-06T03:54:34;2.92;;;2.65;;
36989;SDS011;22898;52.102;5.776;2023-04-06T03:57:01;1.23;;;0.82;;
36989;SDS011;22898;52.102;5.776;2023-04-06T03:59:26;2.08;;;1.98;;
36989;SDS011;22898;52.102;5.776;2023-04-06T04:01:52;2.00;;;1.70;;
36989;SDS011;22898;52.102;5.776;2023-04-06T04:04:17;0.98;;;0.80;;
36989;SDS011;22898;52.102;5.776;2023-04-06T04:06:43;3.80;;;3.20;;
36989;SDS011;22898;52.102;5.776;2023-04-06T04:09:09;1.42;;;1.33;;
36989;SDS011;22898;52.102;5.776;2023-04-06T04:11:34;1.15;;;0.88;;
36989;SDS011;22898;52.102;5.776;2023-04-06T04:14:00;4.00;;;1.13;;
36989;SDS011;22898;52.102;5.776;2023-04-06T04:16:26;2.33;;;1.00;;
36989;SDS011;22898;52.102;5.776;2023-04-06T04:18:51;1.77;;;1.67;;
36989;SDS011;22898;52.102;5.776;2023-04-06T04:21:17;2.90;;;1.65;;
36989;SDS011;22898;52.102;5.776;2023-04-06T04:23:42;1.33;;;1.17;;
36989;SDS011;22898;52.102;5.776;2023-04-06T04:26:08;2.95;;;1.63;;
36989;SDS011;22898;52.102;5.776;2023-04-06T04:28:33;2.38;;;1.70;;
36989;SDS011;22898;52.102;5.776;2023-04-06T04:30:59;1.65;;;1.20;;
36989;SDS011;22898;52.102;5.776;2023-04-06T04:33:24;2.75;;;1.75;;
36989;SDS011;22898;52.102;5.776;2023-04-06T04:35:50;2.42;;;2.25;;
36989;SDS011;22898;52.102;5.776;2023-04-06T04:38:16;1.73;;;1.63;;
36989;SDS011;22898;52.102;5.776;2023-04-06T04:40:41;6.07;;;2.40;;
36989;SDS011;22898;52.102;5.776;2023-04-06T04:43:07;3.92;;;1.60;;
36989;SDS011;22898;52.102;5.776;2023-04-06T04:45:32;5.70;;;1.42;;
36989;SDS011;22898;52.102;5.776;2023-04-06T04:47:58;1.13;;;1.08;;
36989;SDS011;22898;52.102;5.776;2023-04-06T04:50:23;2.88;;;2.13;;
36989;SDS011;22898;52.102;5.776;2023-04-06T04:52:49;2.17;;;1.88;;
36989;SDS011;22898;52.102;5.776;2023-04-06T04:55:14;1.63;;;1.25;;
36989;SDS011;22898;52.102;5.776;2023-04-06T04:57:40;4.40;;;2.33;;
36989;SDS011;22898;52.102;5.776;2023-04-06T05:00:06;2.00;;;1.83;;
36989;SDS011;22898;52.102;5.776;2023-04-06T05:02:32;1.10;;;1.10;;
36989;SDS011;22898;52.102;5.776;2023-04-06T05:04:57;1.55;;;1.48;;
36989;SDS011;22898;52.102;5.776;2023-04-06T05:07:23;3.30;;;2.08;;
36989;SDS011;22898;52.102;5.776;2023-04-06T05:09:49;1.10;;;1.05;;
36989;SDS011;22898;52.102;5.776;2023-04-06T05:12:14;3.08;;;1.95;;
36989;SDS011;22898;52.102;5.776;2023-04-06T05:14:40;1.15;;;1.05;;
36989;SDS011;22898;52.102;5.776;2023-04-06T05:17:06;7.22;;;2.75;;
36989;SDS011;22898;52.102;5.776;2023-04-06T05:19:32;1.23;;;1.10;;
36989;SDS011;22898;52.102;5.776;2023-04-06T05:21:57;2.83;;;1.95;;
36989;SDS011;22898;52.102;5.776;2023-04-06T05:24:23;4.00;;;2.17;;
36989;SDS011;22898;52.102;5.776;2023-04-06T05:26:48;4.05;;;2.53;;
36989;SDS011;22898;52.102;5.776;2023-04-06T05:29:14;1.42;;;1.20;;
36989;SDS011;22898;52.102;5.776;2023-04-06T05:31:40;2.13;;;1.05;;
36989;SDS011;22898;52.102;5.776;2023-04-06T05:34:05;3.55;;;2.65;;
36989;SDS011;22898;52.102;5.776;2023-04-06T05:36:31;1.65;;;1.35;;
36989;SDS011;22898;52.102;5.776;2023-04-06T05:38:57;2.85;;;1.63;;
36989;SDS011;22898;52.102;5.776;2023-04-06T05:41:23;1.65;;;1.17;;
36989;SDS011;22898;52.102;5.776;2023-04-06T05:43:49;2.30;;;1.35;;
36989;SDS011;22898;52.102;5.776;2023-04-06T05:46:14;2.67;;;1.80;;
36989;SDS011;22898;52.102;5.776;2023-04-06T05:48:41;6.53;;;1.45;;
36989;SDS011;22898;52.102;5.776;2023-04-06T05:51:06;1.80;;;1.65;;
36989;SDS011;22898;52.102;5.776;2023-04-06T05:53:32;1.77;;;1.67;;
36989;SDS011;22898;52.102;5.776;2023-04-06T05:56:01;2.22;;;1.80;;
36989;SDS011;22898;52.102;5.776;2023-04-06T05:58:27;2.50;;;1.73;;
36989;SDS011;22898;52.102;5.776;2023-04-06T06:00:56;4.13;;;2.55;;
36989;SDS011;22898;52.102;5.776;2023-04-06T06:03:22;5.68;;;2.55;;
36989;SDS011;22898;52.102;5.776;2023-04-06T06:05:48;4.43;;;2.38;;
36989;SDS011;22898;52.102;5.776;2023-04-06T06:08:13;2.35;;;2.13;;
36989;SDS011;22898;52.102;5.776;2023-04-06T06:10:39;2.47;;;2.28;;
36989;SDS011;22898;52.102;5.776;2023-04-06T06:13:05;3.83;;;2.67;;
36989;SDS011;22898;52.102;5.776;2023-04-06T06:15:30;5.00;;;3.35;;
36989;SDS011;22898;52.102;5.776;2023-04-06T06:17:56;3.45;;;2.50;;
36989;SDS011;22898;52.102;5.776;2023-04-06T06:20:22;2.88;;;2.63;;
36989;SDS011;22898;52.102;5.776;2023-04-06T06:22:47;12.52;;;3.17;;
36989;SDS011;22898;52.102;5.776;2023-04-06T06:25:13;3.33;;;2.75;;
36989;SDS011;22898;52.102;5.776;2023-04-06T06:27:38;3.83;;;2.33;;
36989;SDS011;22898;52.102;5.776;2023-04-06T06:30:04;3.50;;;2.45;;
36989;SDS011;22898;52.102;5.776;2023-04-06T06:32:31;6.05;;;2.22;;
36989;SDS011;22898;52.102;5.776;2023-04-06T06:34:57;2.72;;;1.95;;
36989;SDS011;22898;52.102;5.776;2023-04-06T06:37:23;3.03;;;2.60;;
36989;SDS011;22898;52.102;5.776;2023-04-06T06:39:48;4.55;;;3.20;;
36989;SDS011;22898;52.102;5.776;2023-04-06T06:42:14;2.78;;;2.15;;
36989;SDS011;22898;52.102;5.776;2023-04-06T06:44:39;6.82;;;3.92;;
36989;SDS011;22898;52.102;5.776;2023-04-06T06:47:05;2.50;;;1.80;;
36989;SDS011;22898;52.102;5.776;2023-04-06T06:49:30;3.95;;;3.20;;
36989;SDS011;22898;52.102;5.776;2023-04-06T06:51:56;5.07;;;3.38;;
36989;SDS011;22898;52.102;5.776;2023-04-06T06:54:21;3.08;;;2.50;;
36989;SDS011;22898;52.102;5.776;2023-04-06T06:56:47;9.68;;;2.95;;
36989;SDS011;22898;52.102;5.776;2023-04-06T06:59:12;8.20;;;4.53;;
36989;SDS011;22898;52.102;5.776;2023-04-06T07:01:38;10.02;;;4.25;;
36989;SDS011;22898;52.102;5.776;2023-04-06T07:04:04;7.55;;;3.65;;
36989;SDS011;22898;52.102;5.776;2023-04-06T07:06:29;2.13;;;1.92;;
36989;SDS011;22898;52.102;5.776;2023-04-06T07:08:55;2.95;;;2.42;;
36989;SDS011;22898;52.102;5.776;2023-04-06T07:11:20;3.17;;;2.85;;
36989;SDS011;22898;52.102;5.776;2023-04-06T07:13:46;5.40;;;2.88;;
36989;SDS011;22898;52.102;5.776;2023-04-06T07:16:11;7.80;;;3.70;;
36989;SDS011;22898;52.102;5.776;2023-04-06T07:18:37;9.60;;;3.55;;
36989;SDS011;22898;52.102;5.776;2023-04-06T07:21:03;5.53;;;3.33;;
36989;SDS011;22898;52.102;5.776;2023-04-06T07:23:28;4.95;;;3.53;;
36989;SDS011;22898;52.102;5.776;2023-04-06T07:25:54;4.47;;;4.03;;
36989;SDS011;22898;52.102;5.776;2023-04-06T07:28:20;4.70;;;4.03;;
36989;SDS011;22898;52.102;5.776;2023-04-06T07:30:45;2.20;;;2.00;;
36989;SDS011;22898;52.102;5.776;2023-04-06T07:33:11;4.95;;;3.33;;
36989;SDS011;22898;52.102;5.776;2023-04-06T07:35:37;3.20;;;2.28;;
36989;SDS011;22898;52.102;5.776;2023-04-06T07:38:02;4.85;;;3.40;;
36989;SDS011;22898;52.102;5.776;2023-04-06T07:40:28;4.68;;;3.50;;
36989;SDS011;22898;52.102;5.776;2023-04-06T07:42:56;5.28;;;3.85;;
36989;SDS011;22898;52.102;5.776;2023-04-06T07:45:22;5.45;;;3.17;;
36989;SDS011;22898;52.102;5.776;2023-04-06T07:47:47;4.15;;;2.85;;
36989;SDS011;22898;52.102;5.776;2023-04-06T07:50:13;3.42;;;3.08;;
36989;SDS011;22898;52.102;5.776;2023-04-06T07:52:39;3.60;;;2.45;;
36989;SDS011;22898;52.102;5.776;2023-04-06T07:55:04;6.05;;;3.17;;
36989;SDS011;22898;52.102;5.776;2023-04-06T07:57:30;4.20;;;3.00;;
36989;SDS011;22898;52.102;5.776;2023-04-06T07:59:56;5.90;;;3.88;;
36989;SDS011;22898;52.102;5.776;2023-04-06T08:02:21;3.10;;;2.50;;
36989;SDS011;22898;52.102;5.776;2023-04-06T08:04:47;5.35;;;3.28;;
36989;SDS011;22898;52.102;5.776;2023-04-06T08:07:13;5.30;;;3.25;;
36989;SDS011;22898;52.102;5.776;2023-04-06T08:09:38;10.15;;;3.50;;
36989;SDS011;22898;52.102;5.776;2023-04-06T08:12:04;3.42;;;2.38;;
36989;SDS011;22898;52.102;5.776;2023-04-06T08:14:29;3.17;;;2.33;;
36989;SDS011;22898;52.102;5.776;2023-04-06T08:16:55;8.70;;;3.80;;
36989;SDS011;22898;52.102;5.776;2023-04-06T08:19:20;5.00;;;2.97;;
36989;SDS011;22898;52.102;5.776;2023-04-06T08:21:46;6.45;;;4.50;;
36989;SDS011;22898;52.102;5.776;2023-04-06T08:24:12;5.47;;;2.88;;
36989;SDS011;22898;52.102;5.776;2023-04-06T08:26:38;5.05;;;3.50;;
36989;SDS011;22898;52.102;5.776;2023-04-06T08:29:04;6.25;;;3.85;;
36989;SDS011;22898;52.102;5.776;2023-04-06T08:31:32;6.57;;;3.78;;
36989;SDS011;22898;52.102;5.776;2023-04-06T08:34:01;5.68;;;3.53;;
36989;SDS011;22898;52.102;5.776;2023-04-06T08:36:28;5.03;;;3.53;;
36989;SDS011;22898;52.102;5.776;2023-04-06T08:38:54;5.90;;;2.88;;
36989;SDS011;22898;52.102;5.776;2023-04-06T08:41:19;7.80;;;4.18;;
36989;SDS011;22898;52.102;5.776;2023-04-06T08:43:56;5.78;;;2.97;;
36989;SDS011;22898;52.102;5.776;2023-04-06T08:46:23;3.65;;;2.95;;
36989;SDS011;22898;52.102;5.776;2023-04-06T08:48:56;5.13;;;3.75;;
36989;SDS011;22898;52.102;5.776;2023-04-06T08:51:23;4.05;;;2.85;;
36989;SDS011;22898;52.102;5.776;2023-04-06T08:53:52;6.28;;;4.20;;
36989;SDS011;22898;52.102;5.776;2023-04-06T08:56:22;7.32;;;3.00;;
36989;SDS011;22898;52.102;5.776;2023-04-06T08:58:49;6.72;;;3.65;;
36989;SDS011;22898;52.102;5.776;2023-04-06T09:01:16;5.25;;;3.22;;
36989;SDS011;22898;52.102;5.776;2023-04-06T09:03:45;3.45;;;2.58;;
36989;SDS011;22898;52.102;5.776;2023-04-06T09:06:11;5.68;;;4.00;;
36989;SDS011;22898;52.102;5.776;2023-04-06T09:08:39;6.75;;;3.88;;
36989;SDS011;22898;52.102;5.776;2023-04-06T09:11:05;4.32;;;3.33;;
36989;SDS011;22898;52.102;5.776;2023-04-06T09:13:43;5.38;;;3.95;;
36989;SDS011;22898;52.102;5.776;2023-04-06T09:16:27;5.80;;;4.07;;
36989;SDS011;22898;52.102;5.776;2023-04-06T09:18:52;3.03;;;2.30;;
36989;SDS011;22898;52.102;5.776;2023-04-06T09:21:18;5.20;;;3.47;;
36989;SDS011;22898;52.102;5.776;2023-04-06T09:23:45;5.97;;;3.13;;
36989;SDS011;22898;52.102;5.776;2023-04-06T09:26:16;5.18;;;4.25;;
36989;SDS011;22898;52.102;5.776;2023-04-06T09:31:11;8.52;;;4.60;;
36989;SDS011;22898;52.102;5.776;2023-04-06T09:33:39;7.60;;;4.10;;
36989;SDS011;22898;52.102;5.776;2023-04-06T09:36:06;11.50;;;4.63;;
36989;SDS011;22898;52.102;5.776;2023-04-06T09:38:32;9.30;;;4.55;;
36989;SDS011;22898;52.102;5.776;2023-04-06T09:40:57;9.70;;;5.05;;
36989;SDS011;22898;52.102;5.776;2023-04-06T09:43:24;8.55;;;4.72;;
36989;SDS011;22898;52.102;5.776;2023-04-06T09:45:52;6.22;;;3.30;;
36989;SDS011;22898;52.102;5.776;2023-04-06T09:48:20;5.57;;;4.50;;
36989;SDS011;22898;52.102;5.776;2023-04-06T09:50:50;10.55;;;4.70;;
36989;SDS011;22898;52.102;5.776;2023-04-06T09:53:19;6.72;;;3.92;;
36989;SDS011;22898;52.102;5.776;2023-04-06T09:55:46;6.78;;;4.65;;
36989;SDS011;22898;52.102;5.776;2023-04-06T09:58:16;8.68;;;3.67;;
36989;SDS011;22898;52.102;5.776;2023-04-06T10:00:53;8.18;;;4.13;;
36989;SDS011;22898;52.102;5.776;2023-04-06T10:03:29;7.50;;;4.18;;
36989;SDS011;22898;52.102;5.776;2023-04-06T10:06:14;7.35;;;4.32;;
36989;SDS011;22898;52.102;5.776;2023-04-06T10:08:44;8.52;;;4.25;;
36989;SDS011;22898;52.102;5.776;2023-04-06T10:11:12;8.27;;;4.13;;
36989;SDS011;22898;52.102;5.776;2023-04-06T10:13:38;7.28;;;4.40;;
36989;SDS011;22898;52.102;5.776;2023-04-06T10:16:04;6.85;;;4.35;;
36989;SDS011;22898;52.102;5.776;2023-04-06T10:18:31;7.50;;;4.82;;
36989;SDS011;22898;52.102;5.776;2023-04-06T10:21:09;9.27;;;5.25;;
36989;SDS011;22898;52.102;5.776;2023-04-06T10:26:25;10.88;;;5.32;;
36989;SDS011;22898;52.102;5.776;2023-04-06T10:28:51;5.93;;;4.50;;
36989;SDS011;22898;52.102;5.776;2023-04-06T10:31:26;5.43;;;3.63;;
36989;SDS011;22898;52.102;5.776;2023-04-06T10:34:00;9.07;;;4.55;;
36989;SDS011;22898;52.102;5.776;2023-04-06T10:36:33;6.88;;;3.65;;
36989;SDS011;22898;52.102;5.776;2023-04-06T10:39:01;5.17;;;3.70;;
36989;SDS011;22898;52.102;5.776;2023-04-06T10:41:35;8.85;;;4.22;;
36989;SDS011;22898;52.102;5.776;2023-04-06T10:44:07;4.88;;;4.00;;
36989;SDS011;22898;52.102;5.776;2023-04-06T10:46:41;7.78;;;4.38;;
36989;SDS011;22898;52.102;5.776;2023-04-06T10:49:27;5.55;;;3.15;;
36989;SDS011;22898;52.102;5.776;2023-04-06T10:51:56;6.20;;;4.10;;
36989;SDS011;22898;52.102;5.776;2023-04-06T10:54:23;5.00;;;3.05;;
36989;SDS011;22898;52.102;5.776;2023-04-06T10:56:50;5.65;;;3.88;;
36989;SDS011;22898;52.102;5.776;2023-04-06T10:59:19;4.65;;;3.47;;
36989;SDS011;22898;52.102;5.776;2023-04-06T11:01:46;6.15;;;3.60;;
36989;SDS011;22898;52.102;5.776;2023-04-06T11:04:15;8.77;;;3.90;;
36989;SDS011;22898;52.102;5.776;2023-04-06T11:06:41;4.80;;;2.70;;
36989;SDS011;22898;52.102;5.776;2023-04-06T11:09:22;10.23;;;4.38;;
36989;SDS011;22898;52.102;5.776;2023-04-06T11:11:51;4.82;;;3.17;;
36989;SDS011;22898;52.102;5.776;2023-04-06T11:14:17;5.03;;;3.22;;
36989;SDS011;22898;52.102;5.776;2023-04-06T11:16:45;4.88;;;3.63;;
36989;SDS011;22898;52.102;5.776;2023-04-06T11:19:12;6.78;;;4.00;;
36989;SDS011;22898;52.102;5.776;2023-04-06T11:21:39;4.78;;;2.95;;
36989;SDS011;22898;52.102;5.776;2023-04-06T11:26:56;9.15;;;4.35;;
36989;SDS011;22898;52.102;5.776;2023-04-06T11:29:27;6.20;;;3.53;;
36989;SDS011;22898;52.102;5.776;2023-04-06T11:32:03;3.35;;;3.00;;
36989;SDS011;22898;52.102;5.776;2023-04-06T11:34:32;5.95;;;3.40;;
36989;SDS011;22898;52.102;5.776;2023-04-06T11:37:03;2.88;;;2.17;;
36989;SDS011;22898;52.102;5.776;2023-04-06T11:39:32;3.88;;;2.70;;
36989;SDS011;22898;52.102;5.776;2023-04-06T11:42:04;4.25;;;3.13;;
36989;SDS011;22898;52.102;5.776;2023-04-06T11:44:34;8.70;;;2.45;;
36989;SDS011;22898;52.102;5.776;2023-04-06T11:47:01;5.55;;;2.35;;
36989;SDS011;22898;52.102;5.776;2023-04-06T11:49:28;3.35;;;2.45;;
36989;SDS011;22898;52.102;5.776;2023-04-06T11:51:55;5.18;;;2.22;;
36989;SDS011;22898;52.102;5.776;2023-04-06T11:54:34;13.38;;;3.30;;
36989;SDS011;22898;52.102;5.776;2023-04-06T11:57:03;3.30;;;2.45;;
36989;SDS011;22898;52.102;5.776;2023-04-06T11:59:30;2.85;;;2.17;;
36989;SDS011;22898;52.102;5.776;2023-04-06T12:01:57;3.22;;;1.85;;
36989;SDS011;22898;52.102;5.776;2023-04-06T12:04:23;1.98;;;1.42;;
36989;SDS011;22898;52.102;5.776;2023-04-06T12:06:48;2.65;;;2.25;;
36989;SDS011;22898;52.102;5.776;2023-04-06T12:09:14;3.70;;;1.80;;
36989;SDS011;22898;52.102;5.776;2023-04-06T12:11:40;2.83;;;2.53;;
36989;SDS011;22898;52.102;5.776;2023-04-06T12:14:06;2.70;;;2.38;;
36989;SDS011;22898;52.102;5.776;2023-04-06T12:16:32;2.47;;;2.20;;
36989;SDS011;22898;52.102;5.776;2023-04-06T12:18:59;2.88;;;2.13;;
36989;SDS011;22898;52.102;5.776;2023-04-06T12:21:26;3.28;;;1.88;;
36989;SDS011;22898;52.102;5.776;2023-04-06T12:23:53;4.63;;;1.85;;
36989;SDS011;22898;52.102;5.776;2023-04-06T12:26:19;2.72;;;2.22;;
36989;SDS011;22898;52.102;5.776;2023-04-06T12:28:45;1.58;;;1.45;;
36989;SDS011;22898;52.102;5.776;2023-04-06T12:31:14;1.17;;;1.10;;
36989;SDS011;22898;52.102;5.776;2023-04-06T12:33:45;1.92;;;1.60;;
36989;SDS011;22898;52.102;5.776;2023-04-06T12:36:15;3.42;;;2.17;;
36989;SDS011;22898;52.102;5.776;2023-04-06T12:38:43;2.78;;;1.50;;
36989;SDS011;22898;52.102;5.776;2023-04-06T12:41:10;1.88;;;1.58;;
36989;SDS011;22898;52.102;5.776;2023-04-06T12:43:37;1.80;;;1.63;;
36989;SDS011;22898;52.102;5.776;2023-04-06T12:46:03;1.38;;;1.27;;
36989;SDS011;22898;52.102;5.776;2023-04-06T12:48:28;2.90;;;1.92;;
36989;SDS011;22898;52.102;5.776;2023-04-06T12:50:56;2.75;;;1.55;;
36989;SDS011;22898;52.102;5.776;2023-04-06T12:53:25;1.83;;;1.60;;
36989;SDS011;22898;52.102;5.776;2023-04-06T12:55:53;1.33;;;1.20;;
36989;SDS011;22898;52.102;5.776;2023-04-06T12:58:19;2.08;;;1.80;;
36989;SDS011;22898;52.102;5.776;2023-04-06T13:00:46;1.58;;;1.10;;
36989;SDS011;22898;52.102;5.776;2023-04-06T13:03:13;0.77;;;0.77;;
36989;SDS011;22898;52.102;5.776;2023-04-06T13:05:45;2.80;;;1.58;;
36989;SDS011;22898;52.102;5.776;2023-04-06T13:08:12;2.38;;;1.40;;
36989;SDS011;22898;52.102;5.776;2023-04-06T13:10:42;3.22;;;2.20;;
36989;SDS011;22898;52.102;5.776;2023-04-06T13:13:12;3.28;;;2.38;;
36989;SDS011;22898;52.102;5.776;2023-04-06T13:15:41;1.77;;;1.52;;
36989;SDS011;22898;52.102;5.776;2023-04-06T13:18:07;1.45;;;1.35;;
36989;SDS011;22898;52.102;5.776;2023-04-06T13:20:33;2.50;;;1.90;;
36989;SDS011;22898;52.102;5.776;2023-04-06T13:23:00;1.90;;;1.70;;
36989;SDS011;22898;52.102;5.776;2023-04-06T13:25:25;1.95;;;1.60;;
36989;SDS011;22898;52.102;5.776;2023-04-06T13:27:51;1.33;;;1.23;;
36989;SDS011;22898;52.102;5.776;2023-04-06T13:30:16;3.35;;;2.25;;
36989;SDS011;22898;52.102;5.776;2023-04-06T13:32:42;2.42;;;1.88;;
36989;SDS011;22898;52.102;5.776;2023-04-06T13:35:08;1.85;;;1.67;;
36989;SDS011;22898;52.102;5.776;2023-04-06T13:37:34;1.73;;;1.38;;
36989;SDS011;22898;52.102;5.776;2023-04-06T13:40:01;1.55;;;1.15;;
36989;SDS011;22898;52.102;5.776;2023-04-06T13:42:27;1.08;;;0.98;;
36989;SDS011;22898;52.102;5.776;2023-04-06T13:44:53;1.52;;;1.25;;
36989;SDS011;22898;52.102;5.776;2023-04-06T13:47:19;1.95;;;1.77;;
36989;SDS011;22898;52.102;5.776;2023-04-06T13:49:45;1.58;;;1.15;;
36989;SDS011;22898;52.102;5.776;2023-04-06T13:52:11;2.35;;;1.75;;
36989;SDS011;22898;52.102;5.776;2023-04-06T13:54:37;5.90;;;2.42;;
36989;SDS011;22898;52.102;5.776;2023-04-06T13:57:03;3.38;;;1.70;;
36989;SDS011;22898;52.102;5.776;2023-04-06T13:59:33;2.95;;;1.40;;
36989;SDS011;22898;52.102;5.776;2023-04-06T14:01:59;6.97;;;2.03;;
36989;SDS011;22898;52.102;5.776;2023-04-06T14:04:25;2.40;;;1.80;;
36989;SDS011;22898;52.102;5.776;2023-04-06T14:06:50;2.10;;;1.83;;
36989;SDS011;22898;52.102;5.776;2023-04-06T14:09:16;0.98;;;0.98;;
36989;SDS011;22898;52.102;5.776;2023-04-06T14:11:41;2.47;;;1.50;;
36989;SDS011;22898;52.102;5.776;2023-04-06T14:14:07;2.03;;;1.77;;
36989;SDS011;22898;52.102;5.776;2023-04-06T14:16:32;3.35;;;1.85;;
36989;SDS011;22898;52.102;5.776;2023-04-06T14:18:58;1.83;;;1.50;;
36989;SDS011;22898;52.102;5.776;2023-04-06T14:21:24;1.77;;;1.50;;
36989;SDS011;22898;52.102;5.776;2023-04-06T14:23:49;10.02;;;3.35;;
36989;SDS011;22898;52.102;5.776;2023-04-06T14:26:15;1.52;;;1.35;;
36989;SDS011;22898;52.102;5.776;2023-04-06T14:28:41;2.08;;;1.75;;
36989;SDS011;22898;52.102;5.776;2023-04-06T14:31:10;2.42;;;2.13;;
36989;SDS011;22898;52.102;5.776;2023-04-06T14:33:37;3.22;;;1.85;;
36989;SDS011;22898;52.102;5.776;2023-04-06T14:36:03;1.88;;;1.42;;
36989;SDS011;22898;52.102;5.776;2023-04-06T14:38:30;2.00;;;1.85;;
36989;SDS011;22898;52.102;5.776;2023-04-06T14:40:56;3.00;;;2.08;;
36989;SDS011;22898;52.102;5.776;2023-04-06T14:43:22;3.65;;;1.73;;
36989;SDS011;22898;52.102;5.776;2023-04-06T14:45:47;3.45;;;1.98;;
36989;SDS011;22898;52.102;5.776;2023-04-06T14:48:13;1.83;;;1.38;;
36989;SDS011;22898;52.102;5.776;2023-04-06T14:50:40;1.80;;;1.50;;
36989;SDS011;22898;52.102;5.776;2023-04-06T14:53:06;4.68;;;1.80;;